Aurora, Kentucky
Current Conditions -  °F | °C
As of 7:35 PM on Wednesday 26 Nov 2014 (Local Time) from KCEY Reporting Station
Overcast Overcast  
Wind Chill: 29°   Ceiling: 1100
Heat Index: 37°   Visibility: 10mi
Dew Point: 36°   Wind: 13mph
Humidity: 93%   Direction: 280°W
Pressure: 30.04"   Gusts: 20mph
Location:  36.7761°N, 88.2528°W
Report Text: KCEY 270135Z AUTO 28011G17KT 10SM BKN011 OVC016 03/02 A3004 RMK AO1
Loading
Personal Weather Stations






























Interactive Weather Map New forecast layout! Learn more

10-Day Weather Forecast

Advertisements
Track Severe Weather on mobile